Terminal Aerodrome Forecast
Issued by NWS

Home | Current Version | Previous Version | Text Only | Print | Product List | Glossary On
Versions: 1 2 3 4 5 6 7 8 9 10 11 12 13 14 15 16 17 18 19 20 21 22 23 24
390
FTUS41 KPBZ 171720
TAFMGW
TAF
KMGW 171720Z 1718/1818 28005KT P6SM BKN020
      TEMPO 1718/1720 3SM -SN OVC020
     FM172000 28005KT P6SM SCT035
     FM180400 24006KT P6SM BKN035
     FM181300 22010G20KT P6SM SCT120=

USA.gov is the U.S. government's official web portal to all federal, state and local government web resources and services.